JT925 / PK-LGO 7700 Squawk Report (8th of August, 2019)

Aircraft B739 Reg No. PK-LGO Age 9 years old
Model 737 Jet engines 2 First flight 03-11-09
Registered 11-12-09 Rollout 23-10-09 Delivered 11-12-09
Construction No. 35731 Line No. 3093 Series 9GP(ER)
ADSHEX 8A01CF Airline name Lion Air Owner N/A
Airfield based Jakarta-Soekarno-Hatta Int'l~ ~PK First tracked 2017-07-13 01:11:00

Flight history for PK-LGO

Route Flight No Date Playback
Juanda (SUB) - Syamsudin Noor (BDJ) JT316 2019-09-21 07:29:00
Syamsudin Noor (BDJ) - Juanda (SUB) JT313 2019-09-21 07:24:00
Juanda (SUB) - Syamsudin Noor (BDJ) JT312 2019-09-21 06:10:00
Juwata (TRK) - Sepinggan (BPN) - Juanda (SUB) JT361 2019-09-21 03:50:00
Juanda (SUB) - Sepinggan (BPN) JT360 2019-09-21 01:15:00
El Tari (KOE) - Juanda (SUB) - Soekarno Hatta Intl (CGK) JT697 2019-09-20 12:14:00
Soekarno Hatta Intl (CGK) - Juanda (SUB) - El Tari (KOE) JT694 2019-09-20 08:25:00
Mutiara (PLW) - Soekarno Hatta Intl (CGK) JT723 2019-09-20 04:38:00
Soekarno Hatta Intl (CGK) - Mutiara (PLW) JT720 2019-09-20 01:17:00
El Tari (KOE) - Juanda (SUB) - Soekarno Hatta Intl (CGK) JT693 2019-09-19 12:58:00
Juanda (SUB) - Tjilik Riwut (PKY) JT680 2019-09-19 08:37:00
Syamsudin Noor (BDJ) - Juanda (SUB) JT315 2019-09-19 05:55:00
Juanda (SUB) - Syamsudin Noor (BDJ) JT310 2019-09-19 04:21:00
Syamsudin Noor (BDJ) - Juanda (SUB) JT225 2019-09-18 11:58:00
Juanda (SUB) - Syamsudin Noor (BDJ) JT220 2019-09-18 11:50:00
Tjilik Riwut (PKY) - Juanda (SUB) JT681 2019-09-18 09:27:00
Juanda (SUB) - Tjilik Riwut (PKY) JT680 2019-09-18 05:47:00
Sepinggan (BPN) - Juanda (SUB) JT365 2019-09-18 05:42:00
Juanda (SUB) - Sepinggan (BPN) - Juwata (TRK) JT262 2019-09-18 01:34:00
Soekarno Hatta Intl (CGK) - Juanda (SUB) JT590 2019-09-18 00:13:00
Time Lat Lon Altitude Heading Speed Vertical Rate
2019-08-08 14:43:49 GMT -7.520328 110.874306 4,800 98 174 -384
2019-08-08 14:43:43 GMT -7.519816 110.871132 4,825 98 174 -320
2019-08-08 14:42:35 GMT -7.508178 110.816910 5,250 103 171 -704
2019-08-08 14:42:30 GMT -7.507050 110.812065 5,325 102 172 -1088
2019-08-08 14:41:48 GMT -7.495285 110.781059 5,975 128 188 -1536
2019-08-08 14:41:26 GMT -7.480591 110.766815 6,550 148 194 -1664
2019-08-08 14:41:19 GMT -7.475876 110.764114 6,725 159 195 -1600
2019-08-08 14:41:07 GMT -7.463674 110.759804 7,100 164 196 -1792
2019-08-08 14:41:01 GMT -7.460266 110.759132 7,225 171 197 -1664
2019-08-08 14:40:52 GMT -7.451111 110.758339 7,500 181 198 -1920
2019-08-08 14:40:42 GMT -7.442167 110.759140 7,800 191 195 -1984
2019-08-08 14:40:30 GMT -7.432670 110.761032 8,150 192 192 -2048
2019-08-08 14:40:21 GMT -7.423266 110.762932 8,525 192 187 -2112
2019-08-08 14:40:10 GMT -7.414049 110.764725 8,800 191 189 -1088
2019-08-08 14:39:58 GMT -7.404552 110.766525 9,000 191 196 -1216
2019-08-08 14:39:48 GMT -7.395264 110.768257 9,200 191 202 -1344
2019-08-08 14:39:38 GMT -7.384827 110.770210 9,425 191 208 -1216
2019-08-08 14:39:27 GMT -7.374710 110.772118 9,600 191 220 -576
2019-08-08 14:39:15 GMT -7.363358 110.774216 9,750 191 231 -1344
2019-08-08 14:39:05 GMT -7.351730 110.776314 10,000 191 238 -1536
2019-08-08 14:38:55 GMT -7.340031 110.778458 10,250 191 245 -1728
2019-08-08 14:38:43 GMT -7.327741 110.780685 10,550 191 252 -1792
2019-08-08 14:38:33 GMT -7.315338 110.782875 10,850 191 260 -1792
2019-08-08 14:38:23 GMT -7.302750 110.785202 11,175 191 269 -1984
2019-08-08 14:38:11 GMT -7.289056 110.787743 11,600 191 274 -3264
2019-08-08 14:38:01 GMT -7.275975 110.790207 12,150 192 276 -3328
2019-08-08 14:37:51 GMT -7.262100 110.792931 12,725 192 276 -3584
2019-08-08 14:37:39 GMT -7.249008 110.795486 13,300 191 276 -3328
2019-08-08 14:37:29 GMT -7.235275 110.798004 13,850 191 279 -3136
2019-08-08 14:37:19 GMT -7.207855 110.803032 15,825 191 283 -3200
2019-08-08 14:37:07 GMT -7.207855 110.803032 14,875 191 286 -2816
2019-08-08 14:36:57 GMT -7.193527 110.805641 15,250 191 293 -2048
2019-08-08 14:36:47 GMT -7.179193 110.808250 15,600 191 297 -2176
2019-08-08 14:36:35 GMT -7.164139 110.811089 15,950 191 301 -1984
2019-08-08 14:36:25 GMT -7.149719 110.813736 16,275 191 305 -1984
2019-08-08 14:36:15 GMT -7.134521 110.816528 16,600 191 310 -1920
2019-08-08 14:36:03 GMT -7.119141 110.819420 16,950 191 314 -2176
2019-08-08 14:35:52 GMT -7.103825 110.822220 17,300 191 319 -1984
2019-08-08 14:35:43 GMT -7.088287 110.825050 17,625 191 323 -1984
2019-08-08 14:35:32 GMT -7.072220 110.828033 17,975 191 328 -2048
2019-08-08 14:35:20 GMT -7.055923 110.831055 18,325 191 332 -2176
2019-08-08 14:35:09 GMT -7.039444 110.834129 18,700 191 335 -2176
2019-08-08 14:35:00 GMT -7.023103 110.837273 19,025 191 340 -2112
2019-08-08 14:34:49 GMT -7.006903 110.840401 19,325 191 342 -2112
2019-08-08 14:34:38 GMT -6.989777 110.843719 19,750 191 338 -2368
2019-08-08 14:34:26 GMT -6.972920 110.846939 20,150 191 334 -1600
2019-08-08 14:34:17 GMT -6.956680 110.849770 20,425 190 333 -2560
2019-08-08 14:34:06 GMT -6.940613 110.852432 20,875 190 329 -2560
2019-08-08 14:33:55 GMT -6.924637 110.855171 21,275 191 328 -2432
2019-08-08 14:33:45 GMT -6.908478 110.858566 21,675 195 329 -2048
2019-08-08 14:33:34 GMT -6.892456 110.862755 22,050 195 330 -2112
2019-08-08 14:33:22 GMT -6.876743 110.867012 22,375 196 332 -1792
2019-08-08 14:33:12 GMT -6.860729 110.872177 22,650 202 339 -1600
2019-08-08 14:33:02 GMT -6.845600 110.878899 22,925 208 347 -1600
2019-08-08 14:32:50 GMT -6.830470 110.887756 23,200 214 353 -2240
2019-08-08 14:32:40 GMT -6.816179 110.898415 23,625 220 356 -1664
2019-08-08 14:32:30 GMT -6.803101 110.910332 23,850 227 366 -1280
2019-08-08 14:32:18 GMT -6.790833 110.924255 24,050 232 375 -1344
2019-08-08 14:32:07 GMT -6.777680 110.943069 24,325 239 386 -1280
2019-08-08 14:31:56 GMT -6.768649 110.959686 24,550 245 397 -1472
2019-08-08 14:31:45 GMT -6.760828 110.978249 24,800 251 407 -1472
2019-08-08 14:31:34 GMT -6.754730 110.998001 25,050 256 417 -1600
2019-08-08 14:31:22 GMT -6.750354 111.018738 25,325 261 428 -1856
2019-08-08 14:31:12 GMT -6.747747 111.040283 25,650 267 437 -2176
2019-08-08 14:31:02 GMT -6.747070 111.062790 26,025 271 444 -2048
2019-08-08 14:30:51 GMT -6.747654 111.084846 26,275 272 453 -1152
2019-08-08 14:30:39 GMT -6.748445 111.110184 26,475 272 456 -1088
2019-08-08 14:30:28 GMT -6.749084 111.133507 26,650 272 458 -1088
2019-08-08 14:30:17 GMT -6.749588 111.155663 26,850 272 459 -1088
2019-08-08 14:30:07 GMT -6.750046 111.178757 27,025 271 461 -1088
2019-08-08 14:29:56 GMT -6.750447 111.202332 27,200 271 463 -1088
2019-08-08 14:29:44 GMT -6.750726 111.224777 27,375 271 465 -1088
2019-08-08 14:29:34 GMT -6.750959 111.248131 27,575 271 466 -1088
2019-08-08 14:29:24 GMT -6.751053 111.271950 27,750 271 467 -1088
2019-08-08 14:29:13 GMT -6.751052 111.294960 27,925 270 467 -1088
2019-08-08 14:29:01 GMT -6.751007 111.318832 28,125 270 467 -1088
2019-08-08 14:28:51 GMT -6.750912 111.340988 28,300 270 468 -1088
2019-08-08 14:28:41 GMT -6.750778 111.365013 28,475 270 472 -1088
2019-08-08 14:28:29 GMT -6.750633 111.388298 28,675 270 475 -1088
2019-08-08 14:28:19 GMT -6.750493 111.411308 28,850 270 477 -1024
2019-08-08 14:28:09 GMT -6.750354 111.435226 29,025 270 477 -1088
2019-08-08 14:27:58 GMT -6.750214 111.459190 29,200 270 477 -1088
2019-08-08 14:27:46 GMT -6.750028 111.483147 29,400 270 478 -1088
2019-08-08 14:27:37 GMT -6.749888 111.507156 29,575 270 479 -1088
2019-08-08 14:27:26 GMT -6.749795 111.530312 29,750 270 480 -1088
2019-08-08 14:27:15 GMT -6.749680 111.554008 29,950 270 482 -1088
2019-08-08 14:27:05 GMT -6.749562 111.577766 30,125 270 483 -1152
2019-08-08 14:26:54 GMT -6.749469 111.602058 30,300 270 485 -1088
2019-08-08 14:26:43 GMT -6.749405 111.625938 30,500 270 486 -1152
2019-08-08 14:26:32 GMT -6.749283 111.650787 30,700 270 488 -1152
2019-08-08 14:26:22 GMT -6.749330 111.675316 30,900 271 489 -1152
2019-08-08 14:26:10 GMT -6.750504 111.699394 31,075 276 491 -1152
2019-08-08 14:26:00 GMT -6.753426 111.723473 31,275 279 495 -1216
2019-08-08 14:25:50 GMT -6.757324 111.747574 31,475 280 498 -1152
2019-08-08 14:25:39 GMT -6.761261 111.771408 31,650 280 502 -1152
2019-08-08 14:25:28 GMT -6.765949 111.796783 31,875 283 506 -1152
2019-08-08 14:25:18 GMT -6.772018 111.820992 32,000 287 507 0
2019-08-08 14:25:07 GMT -6.779775 111.844749 32,000 291 506 0
2019-08-08 14:24:55 GMT -6.789551 111.868660 32,000 295 505 0
2019-08-08 14:24:46 GMT -6.800630 111.890877 32,000 300 503 0
2019-08-08 14:24:35 GMT -6.813432 111.912560 32,000 303 501 0
2019-08-08 14:24:23 GMT -6.826904 111.933182 32,000 304 501 0
2019-08-08 14:24:14 GMT -6.840729 111.954178 32,000 304 500 0
2019-08-08 14:24:03 GMT -6.856772 111.978668 32,000 304 499 0
2019-08-08 14:23:54 GMT -6.864670 111.990723 32,000 304 499 0
2019-08-08 14:23:50 GMT -6.870758 112.000076 32,000 304 499 0
2019-08-08 14:23:44 GMT -6.877581 112.010590 32,000 304 500 0
2019-08-08 14:23:38 GMT -6.886752 112.024559 32,000 304 499 0
2019-08-08 14:23:32 GMT -6.892548 112.033501 32,000 304 499 0
2019-08-08 14:23:26 GMT -6.900438 112.045532 32,000 304 499 0
2019-08-08 14:23:22 GMT -6.904724 112.052170 32,000 304 499 0
2019-08-08 14:23:16 GMT -6.914383 112.066925 32,000 304 499 0
2019-08-08 14:23:12 GMT -6.917953 112.072327 32,000 304 499 0
2019-08-08 14:23:05 GMT -6.927567 112.087082 32,000 304 499 0
2019-08-08 14:23:01 GMT -6.931641 112.093323 32,000 304 499 0
2019-08-08 14:22:53 GMT -6.941497 112.108467 32,000 304 499 0
2019-08-08 14:22:50 GMT -6.945082 112.113869 32,000 304 499 0
2019-08-08 14:22:42 GMT -6.959280 112.135651 32,000 304 499 0
2019-08-08 14:22:32 GMT -6.969429 112.151184 32,000 304 499 0
2019-08-08 14:22:29 GMT -6.971741 112.154678 32,000 304 499 0
2019-08-08 14:22:22 GMT -6.982407 112.170967 32,000 304 499 0
2019-08-08 14:22:19 GMT -6.984970 112.174835 32,000 304 499 0
2019-08-08 14:22:08 GMT -6.998657 112.195831 32,000 304 499 0
2019-08-08 14:22:01 GMT -7.009091 112.211754 32,000 304 499 0
2019-08-08 14:21:58 GMT -7.012117 112.216393 32,000 304 499 0
2019-08-08 14:21:50 GMT -7.023056 112.233116 32,000 304 499 0
2019-08-08 14:21:47 GMT -7.025070 112.236237 32,000 304 499 0
2019-08-08 14:21:37 GMT -7.038559 112.256836 32,000 304 499 0
2019-08-08 14:21:29 GMT -7.050018 112.274315 32,000 304 499 0
2019-08-08 14:21:25 GMT -7.053828 112.280128 32,000 304 499 0
2019-08-08 14:21:16 GMT -7.065512 112.298035 32,000 304 499 0
2019-08-08 14:21:04 GMT -7.080270 112.320618 32,000 304 500 0
2019-08-08 14:20:57 GMT -7.090464 112.336197 32,000 304 500 0
2019-08-08 14:20:44 GMT -7.105734 112.359596 32,000 304 500 0
2019-08-08 14:20:33 GMT -7.119186 112.380264 32,000 304 500 0
2019-08-08 14:20:23 GMT -7.132687 112.400932 32,000 304 501 0
2019-08-08 14:20:12 GMT -7.146932 112.422768 32,000 304 501 0
2019-08-08 14:20:01 GMT -7.160431 112.443436 32,000 304 501 64
2019-08-08 14:19:51 GMT -7.173421 112.463348 32,000 304 502 0
2019-08-08 14:19:40 GMT -7.187200 112.484467 32,000 304 502 64
2019-08-08 14:19:30 GMT -7.200467 112.504784 32,000 304 502 0
2019-08-08 14:19:19 GMT -7.214247 112.525856 32,000 304 501 0
2019-08-08 14:19:09 GMT -7.227468 112.546219 32,000 304 501 0
2019-08-08 14:18:58 GMT -7.241247 112.567291 32,000 304 501 0
2019-08-08 14:18:47 GMT -7.254980 112.588409 32,000 304 501 0
2019-08-08 14:18:37 GMT -7.267960 112.608330 32,000 304 501 64
2019-08-08 14:18:24 GMT -7.283470 112.632164 32,000 304 500 0
2019-08-08 14:18:13 GMT -7.297394 112.653671 32,000 304 500 64
2019-08-08 14:18:04 GMT -7.311127 112.674759 32,000 304 500 64
2019-08-08 14:17:55 GMT -7.320991 112.689987 32,000 304 500 0
2019-08-08 14:17:44 GMT -7.335236 112.711815 32,000 304 500 0
2019-08-08 14:17:39 GMT -7.342359 112.722710 32,000 304 500 0
2019-08-08 14:17:31 GMT -7.352234 112.737930 32,000 304 500 0
2019-08-08 14:17:22 GMT -7.362190 112.753113 32,000 304 500 64
2019-08-08 14:17:19 GMT -7.366013 112.758926 32,000 304 500 0
2019-08-08 14:17:12 GMT -7.374712 112.772667 32,000 302 500 0
2019-08-08 14:17:02 GMT -7.386956 112.793556 32,000 301 500 0
2019-08-08 14:16:51 GMT -7.400037 112.816139 32,000 301 501 0
2019-08-08 14:16:45 GMT -7.406799 112.827820 32,000 301 501 0
2019-08-08 14:16:41 GMT -7.411469 112.835922 32,000 301 501 0
2019-08-08 14:16:37 GMT -7.416842 112.845215 32,000 301 501 0
2019-08-08 14:16:30 GMT -7.424057 112.857704 32,000 301 501 64
2019-08-08 14:16:27 GMT -7.428946 112.866196 32,000 301 501 0
2019-08-08 14:16:19 GMT -7.437372 112.880730 32,000 301 501 0
2019-08-08 14:16:08 GMT -7.449738 112.902115 32,000 301 501 0
2019-08-08 14:15:57 GMT -7.462830 112.924744 32,000 301 501 0
2019-08-08 14:15:46 GMT -7.475172 112.946129 32,000 301 501 0
2019-08-08 14:15:38 GMT -7.484483 112.962280 32,000 301 501 0
2019-08-08 14:15:34 GMT -7.491000 112.973549 32,000 301 501 0
2019-08-08 14:15:27 GMT -7.497757 112.985260 32,000 301 500 0
2019-08-08 14:15:23 GMT -7.503569 112.995331 32,000 301 499 64
2019-08-08 14:15:16 GMT -7.510300 113.007050 32,000 301 499 0
2019-08-08 14:15:08 GMT -7.519397 113.022751 32,000 301 499 0
2019-08-08 14:14:59 GMT -7.529800 113.040894 32,000 301 499 0
2019-08-08 14:14:55 GMT -7.535385 113.050529 32,000 301 499 0
2019-08-08 14:14:44 GMT -7.547235 113.071007 32,000 301 498 0
2019-08-08 14:14:38 GMT -7.554932 113.084274 32,000 301 498 0
2019-08-08 14:14:33 GMT -7.560735 113.094307 32,025 301 498 0
2019-08-08 14:14:23 GMT -7.571861 113.113533 32,025 301 498 128
2019-08-08 14:14:12 GMT -7.584384 113.135170 32,025 301 497 320
2019-08-08 14:14:05 GMT -7.605835 113.172493 31,725 300 498 1408
2019-08-08 14:13:55 GMT -7.605835 113.172493 31,700 300 498 1408
2019-08-08 14:13:52 GMT -7.608170 113.176544 31,675 300 498 1408
2019-08-08 14:13:20 GMT -7.645088 113.240677 31,025 301 501 1216
2019-08-08 14:13:06 GMT -7.661179 113.268578 30,775 300 502 1152
2019-08-08 14:12:58 GMT -7.671204 113.285995 30,625 300 502 1152
2019-08-08 14:12:49 GMT -7.681686 113.304192 30,475 301 502 1088
2019-08-08 14:12:38 GMT -7.694321 113.326019 30,300 300 502 1152
2019-08-08 14:12:23 GMT -7.711121 113.355164 30,050 300 502 1216
2019-08-08 14:12:16 GMT -7.720177 113.370995 29,925 300 502 1088
2019-08-08 14:12:05 GMT -7.732086 113.391663 29,750 300 502 1088
2019-08-08 14:11:56 GMT -7.743499 113.411484 29,575 300 502 1152
2019-08-08 14:11:45 GMT -7.756348 113.433746 29,400 300 502 1024
2019-08-08 14:11:31 GMT -7.771683 113.460464 29,200 300 502 1088
2019-08-08 14:11:24 GMT -7.780518 113.475876 29,075 300 500 960
2019-08-08 14:11:13 GMT -7.793310 113.498100 28,900 300 500 1088
2019-08-08 14:11:02 GMT -7.805367 113.519127 28,750 301 499 1024
2019-08-08 14:10:51 GMT -7.819061 113.542908 28,575 300 499 1024
2019-08-08 14:10:41 GMT -7.829947 113.561836 28,425 300 498 1024
2019-08-08 14:10:30 GMT -7.842423 113.583572 28,250 300 498 1088
2019-08-08 14:10:20 GMT -7.854218 113.604080 28,050 300 498 1344
2019-08-08 14:10:10 GMT -7.866211 113.625031 27,825 300 499 1472
2019-08-08 14:09:25 GMT -7.918350 113.716042 26,875 300 506 1088
2019-08-08 14:09:16 GMT -7.929336 113.735252 26,725 300 505 960
2019-08-08 14:09:04 GMT -7.942882 113.758881 26,575 300 503 896
2019-08-08 14:08:55 GMT -7.953415 113.777206 26,450 300 503 960
2019-08-08 14:07:56 GMT -8.022034 113.897125 25,525 298 499 1088
2019-08-08 14:07:48 GMT -8.030182 113.912766 25,400 298 499 1088
2019-08-08 14:07:40 GMT -8.038696 113.929337 25,275 298 498 1216
2019-08-08 14:06:24 GMT -8.119308 114.086311 24,000 298 490 960
2019-08-08 14:06:20 GMT -8.123272 114.094009 23,950 298 489 1216
2019-08-08 14:06:09 GMT -8.134864 114.116745 23,725 298 488 1216
2019-08-08 14:06:00 GMT -8.144407 114.135353 23,550 298 487 1408
2019-08-08 14:05:49 GMT -8.155580 114.157135 23,325 298 485 1216
2019-08-08 14:05:37 GMT -8.168152 114.181656 23,075 298 484 1472
2019-08-08 14:05:27 GMT -8.178251 114.201317 22,850 298 483 1472
2019-08-08 14:05:16 GMT -8.189377 114.222961 22,625 298 482 1408
2019-08-08 14:05:05 GMT -8.200195 114.244125 22,400 298 480 1280
2019-08-08 14:04:54 GMT -8.211594 114.266380 22,175 298 478 1344
2019-08-08 14:04:43 GMT -8.222580 114.287788 21,975 298 475 1216
2019-08-08 14:04:33 GMT -8.233229 114.308670 21,775 298 473 1344
2019-08-08 14:04:22 GMT -8.244075 114.329788 21,550 298 470 1344
2019-08-08 14:04:11 GMT -8.255035 114.351242 21,300 298 468 1536
2019-08-08 14:04:00 GMT -8.265955 114.372551 21,125 298 464 896
2019-08-08 14:03:50 GMT -8.276196 114.392487 20,950 298 460 1216
2019-08-08 14:03:39 GMT -8.286717 114.413086 20,725 298 457 1408
2019-08-08 14:03:23 GMT -8.302126 114.443253 20,425 298 450 1344
2019-08-08 14:03:12 GMT -8.312622 114.463760 20,200 298 446 1344
2019-08-08 14:03:02 GMT -8.322237 114.482605 19,975 298 442 1472
2019-08-08 14:02:51 GMT -8.332338 114.502350 19,725 298 439 1536
2019-08-08 14:02:40 GMT -8.342560 114.522369 19,450 298 435 1536
2019-08-08 14:02:29 GMT -8.352682 114.542175 19,200 298 431 1472
2019-08-08 14:02:17 GMT -8.363113 114.562500 18,925 298 428 1536
2019-08-08 14:02:07 GMT -8.372864 114.581581 18,700 298 423 1408
2019-08-08 14:01:57 GMT -8.381790 114.599136 18,400 298 421 2240
2019-08-08 14:01:46 GMT -8.391599 114.618324 18,000 298 420 2368
2019-08-08 14:01:35 GMT -8.401016 114.636841 17,625 298 419 2368
2019-08-08 14:01:23 GMT -8.411316 114.657089 17,200 298 419 2432
2019-08-08 14:01:08 GMT -8.424977 114.683960 16,625 298 419 2368
2019-08-08 14:00:57 GMT -8.434387 114.702431 16,250 298 419 2112
2019-08-08 14:00:46 GMT -8.444483 114.722176 15,875 298 416 2304
2019-08-08 14:00:35 GMT -8.453842 114.740517 15,500 298 415 2176
2019-08-08 14:00:24 GMT -8.463638 114.759789 15,150 298 413 1984
2019-08-08 14:00:13 GMT -8.473068 114.778267 14,825 298 410 1920
2019-08-08 14:00:03 GMT -8.482237 114.796234 14,500 298 406 1792
2019-08-08 13:59:51 GMT -8.491974 114.815414 14,175 298 402 1920
2019-08-08 13:59:40 GMT -8.501975 114.835068 13,875 298 397 1920
2019-08-08 13:59:27 GMT -8.512253 114.855217 13,475 298 396 1856
2019-08-08 13:59:13 GMT -8.524366 114.879059 13,175 297 388 1920
2019-08-08 13:59:02 GMT -8.533211 114.896484 12,850 298 385 1600
2019-08-08 13:58:51 GMT -8.542145 114.914017 12,575 298 379 1792
2019-08-08 13:58:40 GMT -8.551274 114.931953 12,250 298 376 1536
2019-08-08 13:58:28 GMT -8.560272 114.949623 12,025 298 368 1024
2019-08-08 13:58:16 GMT -8.570034 114.968750 11,850 298 359 1024
2019-08-08 13:58:04 GMT -8.578786 114.985847 11,675 298 348 1024
2019-08-08 13:57:53 GMT -8.587189 115.002228 11,500 298 339 960
2019-08-08 13:57:42 GMT -8.594925 115.017265 11,325 298 328 1024
2019-08-08 13:57:31 GMT -8.602707 115.032440 11,150 298 320 1088
2019-08-08 13:57:19 GMT -8.610718 115.048126 10,950 298 307 1152
2019-08-08 13:57:07 GMT -8.617905 115.062325 10,775 298 298 1024
2019-08-08 13:56:55 GMT -8.625478 115.077240 10,550 298 287 1024
2019-08-08 13:56:44 GMT -8.631902 115.089935 10,375 298 275 1792
2019-08-08 13:56:34 GMT -8.638046 115.101990 10,000 297 272 2496
2019-08-08 13:56:22 GMT -8.644983 115.115837 9,525 297 270 2624
2019-08-08 13:56:11 GMT -8.651276 115.128197 8,975 298 272 3456
2019-08-08 13:55:59 GMT -8.658051 115.141418 8,400 298 274 2624
2019-08-08 13:55:45 GMT -8.665924 115.156830 7,825 298 271 3648
2019-08-08 13:55:34 GMT -8.672309 115.169350 7,225 298 274 2752
2019-08-08 13:55:23 GMT -8.679013 115.182465 6,850 298 266 1088
2019-08-08 13:55:12 GMT -8.685150 115.194397 6,675 298 251 1088
2019-08-08 13:55:00 GMT -8.691536 115.206711 6,425 298 235 1152
2019-08-08 13:54:48 GMT -8.697448 115.218071 6,225 298 219 1344
2019-08-08 13:54:37 GMT -8.702499 115.227776 6,050 298 203 832
2019-08-08 13:54:25 GMT -8.707077 115.236992 5,800 296 191 2560
2019-08-08 13:54:14 GMT -8.711972 115.245537 5,350 311 195 2368
2019-08-08 13:54:03 GMT -8.720072 115.251511 4,950 338 192 2112
2019-08-08 13:53:53 GMT -8.729187 115.253143 4,575 3 187 2368
2019-08-08 13:53:41 GMT -8.738525 115.250862 4,150 27 183 2432
2019-08-08 13:53:30 GMT -8.745758 115.244949 3,700 54 179 2496
2019-08-08 13:53:19 GMT -8.748734 115.236244 3,300 85 175 2176
2019-08-08 13:53:08 GMT -8.749146 115.227119 2,925 87 171 2048
2019-08-08 13:52:57 GMT -8.749420 115.218605 2,550 89 168 2304
2019-08-08 13:52:39 GMT -8.748981 115.204437 1,900 94 164 2304
2019-08-08 13:52:28 GMT -8.748283 115.195862 1,475 94 163 2688
2019-08-08 13:52:17 GMT -8.747724 115.187859 975 91 167 3392
We lost coverage of the aircraft here for a total of 80 minutes
2019-08-08 12:32:28 GMT -8.749054 115.150871 125 87 144 -896
2019-08-08 12:32:21 GMT -8.749237 115.146027 200 87 142 -768
2019-08-08 12:32:10 GMT -8.749466 115.139137 350 88 141 -832
2019-08-08 12:31:59 GMT -8.749695 115.131737 500 88 142 -640
2019-08-08 12:31:47 GMT -8.749959 115.124214 625 87 142 -640
2019-08-08 12:31:37 GMT -8.750284 115.117111 750 89 138 -640
2019-08-08 12:31:26 GMT -8.750191 115.110435 850 91 137 -640
2019-08-08 12:31:16 GMT -8.749819 115.103806 975 93 136 -640
2019-08-08 12:31:05 GMT -8.749329 115.096588 1,100 95 135 -704
2019-08-08 12:30:54 GMT -8.748609 115.089645 1,225 96 135 -640
2019-08-08 12:30:43 GMT -8.747724 115.082878 1,325 99 134 -640
2019-08-08 12:30:31 GMT -8.746490 115.075829 1,450 99 134 -640
2019-08-08 12:30:21 GMT -8.745712 115.069313 1,550 93 135 -704
2019-08-08 12:30:10 GMT -8.745346 115.062469 1,700 92 137 -768
2019-08-08 12:29:59 GMT -8.744931 115.055077 1,825 92 140 -832
2019-08-08 12:29:49 GMT -8.744605 115.048500 1,950 92 144 -448
2019-08-08 12:29:38 GMT -8.744233 115.040825 2,075 93 149 -896
2019-08-08 12:29:27 GMT -8.743814 115.033249 2,250 93 151 -896
2019-08-08 12:29:16 GMT -8.743302 115.025291 2,375 93 155 -384
2019-08-08 12:29:05 GMT -8.742836 115.017670 2,475 93 159 -768
2019-08-08 12:28:54 GMT -8.742278 115.009239 2,625 93 162 -768
2019-08-08 12:28:43 GMT -8.741765 115.001045 2,750 92 162 -768
2019-08-08 12:28:32 GMT -8.741638 114.992683 2,900 93 162 -896
2019-08-08 12:28:21 GMT -8.739304 114.984261 3,050 122 165 -576
2019-08-08 12:28:10 GMT -8.733805 114.978081 3,150 135 168 -512
2019-08-08 12:28:00 GMT -8.727986 114.972397 3,250 135 168 -576
2019-08-08 12:27:48 GMT -8.721817 114.966339 3,350 135 168 -512
2019-08-08 12:27:37 GMT -8.715500 114.960190 3,450 135 168 -576
2019-08-08 12:27:26 GMT -8.709132 114.953979 3,550 135 167 -512
2019-08-08 12:27:15 GMT -8.703232 114.948135 3,650 135 168 -512
2019-08-08 12:27:05 GMT -8.697261 114.942284 3,750 135 169 -576
2019-08-08 12:26:54 GMT -8.690930 114.936127 3,850 136 170 -576
2019-08-08 12:26:43 GMT -8.684647 114.930077 3,950 136 171 -576
2019-08-08 12:26:32 GMT -8.678222 114.923904 4,050 136 174 -640
2019-08-08 12:26:20 GMT -8.671783 114.917686 4,175 135 176 -576
2019-08-08 12:26:09 GMT -8.665146 114.911217 4,275 135 179 -704
2019-08-08 12:25:57 GMT -8.657785 114.904060 4,425 135 182 -704
2019-08-08 12:25:47 GMT -8.651454 114.897812 4,550 135 187 -768
2019-08-08 12:25:36 GMT -8.644547 114.891014 4,675 135 191 -768
2019-08-08 12:25:25 GMT -8.637442 114.884033 4,775 135 197 -512
2019-08-08 12:25:14 GMT -8.630319 114.877022 4,900 135 199 -704
2019-08-08 12:25:03 GMT -8.622711 114.869598 5,025 136 202 -704
2019-08-08 12:24:51 GMT -8.615021 114.862198 5,150 136 207 -704
2019-08-08 12:24:40 GMT -8.607101 114.854568 5,250 136 214 -64
2019-08-08 12:24:29 GMT -8.599228 114.847023 5,275 135 219 -192
2019-08-08 12:24:18 GMT -8.590988 114.839020 5,325 135 221 -384
2019-08-08 12:24:07 GMT -8.583162 114.831375 5,400 135 221 -512
2019-08-08 12:23:56 GMT -8.574596 114.822945 5,475 135 224 -512
2019-08-08 12:23:45 GMT -8.566360 114.814812 5,550 135 229 -128
2019-08-08 12:23:34 GMT -8.558070 114.806793 5,550 135 239 0
2019-08-08 12:23:23 GMT -8.548782 114.797722 5,625 135 247 -896
2019-08-08 12:23:12 GMT -8.539961 114.789185 5,800 135 250 -1088
2019-08-08 12:23:01 GMT -8.530558 114.780090 6,000 136 252 -960
2019-08-08 12:22:50 GMT -8.521591 114.771378 6,175 135 254 -1024
2019-08-08 12:22:40 GMT -8.512496 114.762566 6,325 136 258 -896
2019-08-08 12:22:23 GMT -8.498154 114.748520 6,625 135 261 -1536
2019-08-08 12:22:13 GMT -8.489594 114.739998 6,950 135 254 -2240
2019-08-08 12:22:02 GMT -8.480468 114.730934 7,350 135 246 -2048
2019-08-08 12:21:51 GMT -8.471437 114.722649 7,675 141 240 -1472
2019-08-08 12:21:40 GMT -8.461428 114.715210 7,900 144 238 -1280
2019-08-08 12:21:30 GMT -8.451920 114.708298 8,125 144 237 -1280
2019-08-08 12:21:19 GMT -8.442261 114.701363 8,350 144 237 -1152
2019-08-08 12:21:08 GMT -8.432379 114.694283 8,525 144 238 -768
2019-08-08 12:20:57 GMT -8.422760 114.687447 8,650 144 241 -896
2019-08-08 12:20:46 GMT -8.412269 114.679886 8,800 144 245 -576
2019-08-08 12:20:36 GMT -8.402539 114.672874 8,925 145 249 -960
2019-08-08 12:20:24 GMT -8.391553 114.665825 9,050 151 251 -512
2019-08-08 12:20:14 GMT -8.380148 114.660187 9,125 156 256 -384
2019-08-08 12:20:03 GMT -8.368184 114.654976 9,225 156 262 -768
2019-08-08 12:19:52 GMT -8.356293 114.649780 9,375 156 265 -960
2019-08-08 12:19:41 GMT -8.343837 114.644279 9,600 156 266 -1472
2019-08-08 12:19:30 GMT -8.330795 114.638611 9,875 156 268 -1536
2019-08-08 12:19:20 GMT -8.319305 114.633675 10,125 156 268 -1856
2019-08-08 12:19:08 GMT -8.305804 114.627792 10,450 156 268 -1408
2019-08-08 12:18:58 GMT -8.294083 114.622643 10,675 156 270 -1664
2019-08-08 12:18:47 GMT -8.281783 114.617424 10,975 157 271 -1728
2019-08-08 12:18:36 GMT -8.269214 114.612076 11,250 156 273 -1536
2019-08-08 12:18:25 GMT -8.256179 114.606346 11,550 156 274 -1792
2019-08-08 12:18:02 GMT -8.229721 114.594711 12,125 156 277 -1600
2019-08-08 12:17:52 GMT -8.217453 114.589310 12,400 156 277 -1728
2019-08-08 12:17:40 GMT -8.203171 114.583214 12,700 157 278 -1600
2019-08-08 12:17:31 GMT -8.191937 114.578453 12,950 157 279 -1728
2019-08-08 12:17:20 GMT -8.178726 114.572876 13,250 157 281 -1728
2019-08-08 12:17:09 GMT -8.165680 114.567337 13,550 156 282 -1472
2019-08-08 12:16:58 GMT -8.152084 114.561470 13,775 156 287 -1600
2019-08-08 12:16:47 GMT -8.138397 114.555420 14,075 156 287 -1920
2019-08-08 12:16:36 GMT -8.124995 114.549515 14,425 156 286 -2112
2019-08-08 12:16:25 GMT -8.111618 114.543594 14,800 156 285 -2176
2019-08-08 12:16:14 GMT -8.098572 114.537827 15,150 156 282 -1984
2019-08-08 12:16:03 GMT -8.085332 114.531998 15,525 156 281 -2112
2019-08-08 12:15:52 GMT -8.071925 114.526176 15,850 156 282 -1728
2019-08-08 12:15:41 GMT -8.058891 114.520493 16,150 156 282 -1856
2019-08-08 12:15:30 GMT -8.045903 114.514763 16,425 156 285 -1408
2019-08-08 12:15:19 GMT -8.032728 114.508888 16,700 156 288 -1536
2019-08-08 12:15:08 GMT -8.019196 114.502960 16,900 156 291 -768
2019-08-08 12:14:57 GMT -8.005449 114.497002 17,075 156 296 -768
2019-08-08 12:14:47 GMT -7.991913 114.491089 17,150 156 303 -448
2019-08-08 12:14:35 GMT -7.976669 114.484566 17,225 157 312 -384
2019-08-08 12:14:25 GMT -7.963165 114.478844 17,300 157 320 -448
2019-08-08 12:14:13 GMT -7.946503 114.471863 17,375 157 329 -640
2019-08-08 12:14:03 GMT -7.932312 114.465805 17,525 157 336 -1216
2019-08-08 12:13:52 GMT -7.916441 114.459122 17,750 157 338 -1344
2019-08-08 12:11:51 GMT -7.751221 114.386993 21,825 156 307 -1792
2019-08-08 12:11:40 GMT -7.737076 114.379501 22,075 140 311 -576
2019-08-08 12:11:30 GMT -7.725996 114.370750 22,175 135 314 -512
2019-08-08 12:07:31 GMT -7.626572 113.964951 23,000 102 399 64
2019-08-08 12:07:27 GMT -7.625070 113.958008 23,000 102 399 0
2019-08-08 12:07:17 GMT -7.621216 113.940186 23,000 102 399 0
2019-08-08 12:07:06 GMT -7.616970 113.920219 23,000 102 398 0
2019-08-08 12:06:58 GMT -7.613572 113.904259 23,000 102 397 0
2019-08-08 12:06:32 GMT -7.603638 113.857651 23,000 101 395 0
2019-08-08 12:06:25 GMT -7.600956 113.845070 23,000 102 395 0
2019-08-08 12:06:14 GMT -7.596906 113.826363 23,000 102 395 0
2019-08-08 12:06:03 GMT -7.592422 113.805885 23,025 102 395 0
2019-08-08 12:05:53 GMT -7.588531 113.787910 23,025 102 395 -64
2019-08-08 12:05:43 GMT -7.584595 113.769943 23,000 102 394 704
2019-08-08 12:05:33 GMT -7.580566 113.751328 22,850 102 392 1024
2019-08-08 12:05:22 GMT -7.576401 113.732056 22,675 102 390 1024
2019-08-08 12:05:11 GMT -7.572327 113.713234 22,525 102 387 1280
2019-08-08 12:05:00 GMT -7.568161 113.693832 22,225 102 385 2048
2019-08-08 12:04:49 GMT -7.563812 113.673492 21,850 102 384 2240
2019-08-08 12:04:16 GMT -7.551890 113.617241 20,650 102 382 3008
2019-08-08 12:04:08 GMT -7.548585 113.601898 20,250 102 384 2880
2019-08-08 12:03:57 GMT -7.544675 113.583672 19,775 102 385 2880
2019-08-08 12:03:04 GMT -7.524424 113.489761 17,625 102 380 2304
2019-08-08 12:02:53 GMT -7.520462 113.471451 17,250 102 377 2112
2019-08-08 12:02:43 GMT -7.516663 113.453667 16,925 102 374 2368
2019-08-08 12:02:32 GMT -7.512833 113.435684 16,475 102 372 2816
2019-08-08 12:02:21 GMT -7.508835 113.417030 15,975 101 372 3008
2019-08-08 12:02:10 GMT -7.505012 113.399033 15,450 102 373 3328
2019-08-08 12:02:00 GMT -7.501282 113.381653 14,925 102 375 3648
2019-08-08 12:01:49 GMT -7.497253 113.363075 14,325 102 379 3520
2019-08-08 12:01:39 GMT -7.493225 113.344360 13,775 102 382 3072
2019-08-08 12:01:27 GMT -7.488968 113.324860 13,250 102 382 2624
2019-08-08 12:01:17 GMT -7.484995 113.306450 12,825 102 380 2432
2019-08-08 12:01:06 GMT -7.481049 113.288132 12,425 102 377 2368
2019-08-08 12:00:56 GMT -7.477407 113.271362 12,075 102 374 2432
2019-08-08 12:00:46 GMT -7.473495 113.253357 11,625 102 373 2496
2019-08-08 12:00:34 GMT -7.469284 113.233711 11,275 102 367 1920
2019-08-08 12:00:23 GMT -7.465393 113.215790 10,975 102 359 1088
2019-08-08 12:00:13 GMT -7.461639 113.198334 10,800 102 347 1344
2019-08-08 12:00:03 GMT -7.458320 113.182999 10,625 102 336 768
2019-08-08 11:59:52 GMT -7.454782 113.166664 10,400 102 326 2752
2019-08-08 11:59:41 GMT -7.451202 113.150291 9,875 102 326 2816
2019-08-08 11:59:30 GMT -7.447846 113.134552 9,450 102 325 2432
2019-08-08 11:59:20 GMT -7.444611 113.119514 9,050 102 322 2368
2019-08-08 11:59:09 GMT -7.441189 113.104012 8,675 102 319 2240
2019-08-08 11:58:58 GMT -7.437469 113.087021 8,275 102 314 1920
2019-08-08 11:58:48 GMT -7.434494 113.073433 8,000 102 306 1664
2019-08-08 11:58:37 GMT -7.431134 113.057648 7,700 101 299 1856
2019-08-08 11:58:25 GMT -7.427673 113.041214 7,325 102 291 2048
2019-08-08 11:58:16 GMT -7.425293 113.030182 7,000 102 287 2496
2019-08-08 11:58:06 GMT -7.422335 113.016357 6,600 102 283 2240
2019-08-08 11:57:55 GMT -7.419403 113.003006 6,200 102 280 2304
2019-08-08 11:57:44 GMT -7.416458 112.989594 5,825 102 276 2432
2019-08-08 11:57:34 GMT -7.413620 112.976555 5,425 102 272 2560
2019-08-08 11:57:24 GMT -7.410782 112.963707 4,975 102 271 2816
2019-08-08 11:57:12 GMT -7.407715 112.949883 4,500 102 270 2496
2019-08-08 11:57:02 GMT -7.404878 112.936897 4,100 102 267 2432
2019-08-08 11:56:52 GMT -7.402225 112.924301 3,675 100 265 2432
2019-08-08 11:56:41 GMT -7.400130 112.911751 3,300 99 261 2240
2019-08-08 11:56:31 GMT -7.398175 112.899391 3,050 98 251 960
2019-08-08 11:55:51 GMT -7.391564 112.858093 2,350 99 198 1152
2019-08-08 11:55:35 GMT -7.389237 112.843513 2,075 99 185 1152
2019-08-08 11:55:13 GMT -7.386475 112.826332 1,675 99 164 1216
2019-08-08 11:55:02 GMT -7.385010 112.818092 1,450 100 157 1536
2019-08-08 11:54:50 GMT -7.383362 112.809570 1,025 100 154 2880
We lost coverage of the aircraft here for a total of 92 minutes
2019-08-08 10:22:49 GMT -7.383682 112.810410 325 280 169 -832
2019-08-08 10:22:44 GMT -7.384277 112.814133 375 280 169 -832
2019-08-08 10:22:33 GMT -7.385742 112.822838 550 280 169 -1024
2019-08-08 10:21:12 GMT -7.395721 112.886848 1,525 279 180 -256
2019-08-08 10:21:05 GMT -7.396545 112.892952 1,550 279 180 -256
2019-08-08 10:20:58 GMT -7.397523 112.898636 1,600 284 182 -256
2019-08-08 10:20:49 GMT -7.399384 112.906731 1,650 287 182 -320
2019-08-08 10:20:38 GMT -7.402039 112.914970 1,700 290 182 -448
2019-08-08 10:20:24 GMT -7.406135 112.926521 1,750 290 182 192
2019-08-08 10:20:12 GMT -7.409068 112.936378 1,775 282 184 -384
2019-08-08 10:20:06 GMT -7.410049 112.941269 1,825 281 184 -384
2019-08-08 10:19:56 GMT -7.411861 112.949776 1,900 286 182 -960
2019-08-08 10:19:45 GMT -7.414980 112.958015 2,125 301 181 -1536
2019-08-08 10:19:35 GMT -7.420147 112.964973 2,375 320 177 -1408
2019-08-08 10:19:24 GMT -7.427765 112.970314 2,650 336 173 -1216
We lost coverage of the aircraft here for a total of 17 minutes
2019-08-08 10:02:07 GMT -8.604584 113.911415 12,050 318 357 -64
2019-08-08 10:01:56 GMT -8.618271 113.924126 12,075 318 357 -64
2019-08-08 10:01:45 GMT -8.631623 113.936554 12,075 318 351 0
2019-08-08 10:01:35 GMT -8.643768 113.947868 12,050 318 347 0
2019-08-08 10:01:23 GMT -8.657547 113.960670 12,075 318 347 0
2019-08-08 10:01:13 GMT -8.669609 113.971931 12,075 318 347 0
2019-08-08 10:00:59 GMT -8.685928 113.987114 12,075 318 347 0
2019-08-08 10:00:51 GMT -8.696144 113.996605 12,075 318 347 0
2019-08-08 10:00:39 GMT -8.709412 114.008919 12,050 318 347 0
2019-08-08 10:00:29 GMT -8.721497 114.020119 12,075 318 346 0
2019-08-08 10:00:19 GMT -8.734084 114.031792 12,075 318 346 0
2019-08-08 10:00:08 GMT -8.747040 114.043861 12,075 318 346 0
2019-08-08 09:59:56 GMT -8.760269 114.056198 12,075 318 346 0
2019-08-08 09:59:46 GMT -8.772995 114.068016 12,075 318 345 0
2019-08-08 09:59:34 GMT -8.786179 114.080307 12,050 318 344 0
2019-08-08 09:59:22 GMT -8.800278 114.093437 12,050 318 344 0
2019-08-08 09:59:12 GMT -8.812711 114.105049 12,075 318 343 64
2019-08-08 09:59:01 GMT -8.825327 114.116837 12,050 318 343 0
2019-08-08 09:58:49 GMT -8.839142 114.129745 12,050 318 343 0
2019-08-08 09:58:39 GMT -8.851318 114.141151 12,050 318 343 0
2019-08-08 09:58:28 GMT -8.863998 114.152931 12,050 318 343 64
2019-08-08 09:58:17 GMT -8.876724 114.164711 12,050 318 344 0
2019-08-08 09:58:06 GMT -8.889908 114.176949 12,050 318 344 0
2019-08-08 09:57:54 GMT -8.903595 114.189659 12,050 318 346 0
2019-08-08 09:57:43 GMT -8.916779 114.201950 12,075 318 346 0
2019-08-08 09:57:33 GMT -8.929278 114.213631 12,075 318 346 0
2019-08-08 09:57:22 GMT -8.942230 114.225693 12,075 318 345 0
2019-08-08 09:57:11 GMT -8.955161 114.237732 12,075 318 343 0
2019-08-08 09:57:00 GMT -8.967311 114.249100 12,075 318 343 0
2019-08-08 09:56:49 GMT -8.979973 114.260895 12,050 318 343 64
2019-08-08 09:56:38 GMT -8.993317 114.273361 12,050 318 343 0
2019-08-08 09:56:27 GMT -9.006182 114.285370 12,050 318 343 0
2019-08-08 09:56:16 GMT -9.019089 114.297424 12,050 317 344 0
2019-08-08 09:56:05 GMT -9.031723 114.309349 12,050 317 344 64
2019-08-08 09:55:54 GMT -9.044541 114.321503 12,050 317 343 64
2019-08-08 09:55:44 GMT -9.057083 114.333458 12,050 317 343 -64
2019-08-08 09:55:33 GMT -9.069866 114.345612 12,050 317 345 -512
2019-08-08 09:55:22 GMT -9.082621 114.357635 12,225 317 351 -1280
2019-08-08 09:55:11 GMT -9.095609 114.369858 12,475 317 358 -1920
2019-08-08 09:55:00 GMT -9.109295 114.382736 12,800 318 360 -1536
2019-08-08 09:54:49 GMT -9.122516 114.395187 13,000 318 360 -256
2019-08-08 09:54:38 GMT -9.135590 114.407341 13,000 318 360 0
2019-08-08 09:54:27 GMT -9.149414 114.420143 13,000 318 361 0
2019-08-08 09:54:16 GMT -9.163156 114.432549 13,000 319 360 -64
2019-08-08 09:54:05 GMT -9.176926 114.444862 13,025 319 357 0
2019-08-08 09:53:55 GMT -9.189880 114.456169 13,025 319 350 64
2019-08-08 09:53:44 GMT -9.202606 114.468925 13,025 312 338 192
2019-08-08 09:53:33 GMT -9.212688 114.482132 13,000 304 335 0
2019-08-08 09:53:21 GMT -9.222185 114.497620 13,000 301 335 0
2019-08-08 09:53:11 GMT -9.230564 114.511635 13,000 301 336 0
2019-08-08 09:52:59 GMT -9.239874 114.527306 13,000 301 336 64
2019-08-08 09:52:49 GMT -9.247928 114.540802 13,000 301 336 0
2019-08-08 09:52:38 GMT -9.256912 114.555908 13,000 301 335 0
2019-08-08 09:52:27 GMT -9.265897 114.571014 13,025 301 334 0
2019-08-08 09:52:16 GMT -9.274612 114.585678 13,025 301 330 -64
2019-08-08 09:52:06 GMT -9.282761 114.599365 13,025 301 324 0
2019-08-08 09:51:55 GMT -9.291175 114.613449 13,050 301 312 -64
2019-08-08 09:51:43 GMT -9.299647 114.627655 13,050 302 296 0
2019-08-08 09:51:32 GMT -9.307096 114.640205 13,050 301 279 0
2019-08-08 09:51:21 GMT -9.314255 114.652206 13,025 301 262 64
2019-08-08 09:51:10 GMT -9.320847 114.663239 13,025 301 245 192
2019-08-08 09:50:59 GMT -9.327253 114.674011 13,000 301 243 0
2019-08-08 09:50:48 GMT -9.333724 114.684952 13,000 301 243 0
2019-08-08 09:50:37 GMT -9.340008 114.695511 13,000 301 243 0
2019-08-08 09:50:27 GMT -9.346246 114.706078 13,000 301 243 0
2019-08-08 09:50:15 GMT -9.352844 114.717239 13,000 301 243 0
2019-08-08 09:50:04 GMT -9.359299 114.728226 13,000 301 243 0
2019-08-08 09:49:53 GMT -9.365379 114.738556 13,000 301 243 64
2019-08-08 09:49:42 GMT -9.371704 114.749359 13,000 301 242 0
2019-08-08 09:49:31 GMT -9.378113 114.760345 13,000 301 243 0
2019-08-08 09:49:20 GMT -9.384466 114.771187 13,000 301 244 0
2019-08-08 09:49:09 GMT -9.390747 114.782036 13,000 301 244 64
2019-08-08 09:48:58 GMT -9.396973 114.792702 13,000 301 244 0
2019-08-08 09:48:47 GMT -9.403692 114.804337 13,000 301 244 0
2019-08-08 09:48:37 GMT -9.409332 114.814018 13,000 301 244 0
2019-08-08 09:48:26 GMT -9.415512 114.824677 13,000 301 244 64
2019-08-08 09:48:15 GMT -9.421921 114.835762 13,000 301 244 64
2019-08-08 09:48:04 GMT -9.428329 114.846748 13,000 301 243 64
2019-08-08 09:47:53 GMT -9.434555 114.857361 13,000 301 243 0
2019-08-08 09:47:42 GMT -9.440964 114.868393 13,000 301 244 0
2019-08-08 09:47:31 GMT -9.447144 114.879051 13,000 301 244 64
2019-08-08 09:47:20 GMT -9.453552 114.890083 13,000 301 243 0
2019-08-08 09:47:09 GMT -9.459834 114.900894 13,000 301 243 64
2019-08-08 09:46:58 GMT -9.465958 114.911316 13,000 301 243 0
2019-08-08 09:46:47 GMT -9.472263 114.922157 13,000 301 243 0
2019-08-08 09:46:36 GMT -9.478455 114.932762 13,000 301 243 64
2019-08-08 09:46:25 GMT -9.485138 114.943901 13,000 304 243 0
2019-08-08 09:46:15 GMT -9.492094 114.953079 13,000 313 242 0
2019-08-08 09:46:04 GMT -9.501219 114.961220 13,000 325 242 0
2019-08-08 09:45:53 GMT -9.511871 114.967499 13,000 336 242 0
2019-08-08 09:45:42 GMT -9.523407 114.971367 13,000 348 242 0
2019-08-08 09:45:30 GMT -9.536362 114.972900 13,000 0 243 0
2019-08-08 09:45:20 GMT -9.548035 114.971878 13,000 11 243 0
2019-08-08 09:45:09 GMT -9.560120 114.967873 13,000 27 246 0
2019-08-08 09:44:58 GMT -9.570069 114.960846 13,000 44 249 0
2019-08-08 09:44:47 GMT -9.577890 114.950943 13,000 61 252 0
2019-08-08 09:44:36 GMT -9.582642 114.938271 13,000 78 256 0
2019-08-08 09:44:26 GMT -9.583383 114.925987 13,000 95 260 0
2019-08-08 09:44:14 GMT -9.580032 114.912521 13,000 114 263 0
2019-08-08 09:44:04 GMT -9.573142 114.901459 13,000 131 265 0
2019-08-08 09:43:52 GMT -9.562062 114.892418 13,000 151 265 -64
2019-08-08 09:43:42 GMT -9.550278 114.888039 13,000 168 266 0
2019-08-08 09:43:31 GMT -9.536636 114.885475 13,000 169 267 0
2019-08-08 09:43:19 GMT -9.522726 114.882988 13,000 170 266 0
2019-08-08 09:43:09 GMT -9.510017 114.880768 13,000 170 265 0
2019-08-08 09:42:58 GMT -9.496628 114.878448 13,000 170 265 0
2019-08-08 09:42:47 GMT -9.483444 114.876167 13,000 170 266 64
2019-08-08 09:42:36 GMT -9.470261 114.873932 13,000 170 266 0
2019-08-08 09:42:25 GMT -9.456808 114.871582 13,000 170 266 64
2019-08-08 09:42:14 GMT -9.443390 114.869232 13,000 170 265 0
2019-08-08 09:42:03 GMT -9.429947 114.866890 13,000 169 267 0
2019-08-08 09:41:53 GMT -9.416773 114.864426 13,000 168 267 64
2019-08-08 09:41:42 GMT -9.403381 114.861923 13,000 174 265 0
2019-08-08 09:41:30 GMT -9.389191 114.862389 13,000 193 261 0
2019-08-08 09:41:20 GMT -9.377576 114.866562 13,000 211 258 0
2019-08-08 09:41:09 GMT -9.367447 114.874161 13,000 229 255 0
2019-08-08 09:40:58 GMT -9.359528 114.885338 13,000 246 250 64
2019-08-08 09:40:47 GMT -9.355789 114.897057 13,000 262 246 0
2019-08-08 09:40:36 GMT -9.355557 114.909889 13,000 280 244 0
2019-08-08 09:40:25 GMT -9.358795 114.921463 13,000 295 242 0
2019-08-08 09:40:14 GMT -9.365433 114.932213 13,000 312 241 0
2019-08-08 09:40:03 GMT -9.374271 114.940102 13,000 329 240 0
2019-08-08 09:39:52 GMT -9.386048 114.945404 13,000 346 241 0
2019-08-08 09:39:42 GMT -9.397339 114.947624 13,000 350 241 0
2019-08-08 09:39:31 GMT -9.409045 114.949760 13,000 350 242 0
2019-08-08 09:39:20 GMT -9.421738 114.952049 13,000 350 243 64
2019-08-08 09:39:09 GMT -9.433731 114.954285 13,000 350 243 64
2019-08-08 09:38:58 GMT -9.445915 114.956490 13,000 350 242 0
2019-08-08 09:38:47 GMT -9.458297 114.958755 13,000 351 242 0
2019-08-08 09:38:36 GMT -9.470261 114.960846 13,000 350 241 0
2019-08-08 09:38:25 GMT -9.482025 114.962891 13,000 351 241 0
2019-08-08 09:38:14 GMT -9.494189 114.964966 13,000 351 241 0
2019-08-08 09:38:03 GMT -9.506619 114.966995 13,000 351 242 0
2019-08-08 09:37:52 GMT -9.518583 114.968987 13,000 351 242 0
2019-08-08 09:37:41 GMT -9.531012 114.971214 13,000 350 242 64
2019-08-08 09:37:30 GMT -9.542816 114.973091 13,000 358 243 0
2019-08-08 09:37:19 GMT -9.554947 114.972015 13,000 15 244 64
2019-08-08 09:37:08 GMT -9.566531 114.967285 13,000 32 247 0
2019-08-08 09:36:58 GMT -9.576233 114.959076 13,000 50 250 0
2019-08-08 09:36:46 GMT -9.583237 114.947952 13,000 66 253 0
2019-08-08 09:36:36 GMT -9.586363 114.935699 13,000 86 257 64
2019-08-08 09:36:25 GMT -9.585709 114.922905 13,000 103 260 0
2019-08-08 09:36:14 GMT -9.580994 114.910568 13,000 121 263 0
2019-08-08 09:36:03 GMT -9.571606 114.899467 13,000 139 265 0
2019-08-08 09:35:52 GMT -9.560303 114.892921 13,000 159 266 64
2019-08-08 09:35:40 GMT -9.546095 114.889618 13,000 169 267 0
2019-08-08 09:35:30 GMT -9.533661 114.887383 13,000 169 267 64
2019-08-08 09:35:19 GMT -9.520677 114.885025 13,000 170 266 0
2019-08-08 09:35:08 GMT -9.506790 114.882591 13,000 170 266 0
2019-08-08 09:34:57 GMT -9.493398 114.880196 13,000 170 266 0
2019-08-08 09:34:46 GMT -9.479965 114.877892 13,000 170 265 0
2019-08-08 09:34:35 GMT -9.467049 114.875648 13,000 170 265 0
2019-08-08 09:34:24 GMT -9.453644 114.873375 13,000 170 266 64
2019-08-08 09:34:14 GMT -9.440460 114.871185 13,000 170 266 0
2019-08-08 09:33:58 GMT -9.420959 114.867691 13,000 168 265 64
2019-08-08 09:33:47 GMT -9.407867 114.865044 13,000 169 265 -64
2019-08-08 09:33:35 GMT -9.394009 114.863953 13,000 187 261 0
2019-08-08 09:33:24 GMT -9.380881 114.867271 13,000 205 259 0
2019-08-08 09:33:14 GMT -9.370360 114.873901 13,000 222 256 0
2019-08-08 09:33:03 GMT -9.362045 114.883896 13,000 240 252 0
2019-08-08 09:32:52 GMT -9.357285 114.895576 13,000 258 249 0
2019-08-08 09:32:41 GMT -9.356208 114.907761 13,000 275 244 0
2019-08-08 09:32:30 GMT -9.358932 114.920387 13,000 292 242 0
2019-08-08 09:32:20 GMT -9.364448 114.930489 13,000 309 241 0
2019-08-08 09:32:09 GMT -9.373014 114.939056 13,000 326 241 0
2019-08-08 09:31:58 GMT -9.384093 114.944839 13,000 345 242 64
2019-08-08 09:31:47 GMT -9.396240 114.947433 13,000 351 242 64
2019-08-08 09:31:36 GMT -9.408188 114.949577 13,000 350 241 0
2019-08-08 09:31:25 GMT -9.419938 114.951706 13,000 350 241 0
2019-08-08 09:31:14 GMT -9.432541 114.953957 13,000 350 241 0
2019-08-08 09:31:03 GMT -9.444285 114.956108 13,000 350 241 0
2019-08-08 09:30:53 GMT -9.456249 114.958282 13,000 350 242 64
2019-08-08 09:30:42 GMT -9.468430 114.960518 13,000 350 242 0
2019-08-08 09:30:30 GMT -9.481750 114.962891 13,000 351 242 0
2019-08-08 09:30:20 GMT -9.492188 114.964676 13,000 351 242 64
2019-08-08 09:30:09 GMT -9.504617 114.966812 13,000 351 242 0
2019-08-08 09:29:58 GMT -9.516861 114.968849 13,000 351 242 0
2019-08-08 09:29:47 GMT -9.529103 114.970932 13,000 351 242 0
2019-08-08 09:29:36 GMT -9.541306 114.973137 13,000 352 242 0
2019-08-08 09:29:25 GMT -9.553894 114.973648 13,000 6 243 0
2019-08-08 09:29:15 GMT -9.565181 114.971024 13,000 21 245 0
2019-08-08 09:29:04 GMT -9.576075 114.965248 13,000 37 249 0
2019-08-08 09:28:52 GMT -9.585617 114.956047 13,000 53 252 0
2019-08-08 09:28:41 GMT -9.592300 114.944038 13,000 68 255 0
2019-08-08 09:28:31 GMT -9.595001 114.932869 13,000 86 258 0
2019-08-08 09:28:20 GMT -9.594556 114.919029 13,000 100 261 0
2019-08-08 09:28:09 GMT -9.590424 114.906654 13,000 117 264 0
2019-08-08 09:27:58 GMT -9.582313 114.895164 13,000 134 265 0
2019-08-08 09:27:47 GMT -9.571699 114.887108 13,000 154 267 0
2019-08-08 09:27:36 GMT -9.558884 114.882545 13,000 168 266 0
2019-08-08 09:27:25 GMT -9.545746 114.880119 13,000 170 266 0
2019-08-08 09:27:14 GMT -9.532362 114.877785 13,000 170 266 0
2019-08-08 09:27:04 GMT -9.519424 114.875511 13,000 170 265 64
2019-08-08 09:26:53 GMT -9.506287 114.873230 13,000 170 265 64
2019-08-08 09:26:42 GMT -9.493195 114.871048 13,000 170 264 64
2019-08-08 09:26:31 GMT -9.479805 114.868782 12,975 170 265 0
2019-08-08 09:26:20 GMT -9.466677 114.866508 13,025 169 267 -640
2019-08-08 09:26:09 GMT -9.453503 114.864098 13,200 168 265 -1344
2019-08-08 09:25:59 GMT -9.440375 114.861633 13,425 173 266 -1280
2019-08-08 09:25:47 GMT -9.426270 114.861595 13,650 190 267 -1216
2019-08-08 09:25:36 GMT -9.413406 114.865555 13,875 207 269 -1216
2019-08-08 09:25:25 GMT -9.402016 114.873329 14,075 224 270 -1280
2019-08-08 09:25:14 GMT -9.393219 114.884682 14,300 242 271 -768
2019-08-08 09:25:03 GMT -9.388469 114.897339 14,400 260 278 -640
2019-08-08 09:24:53 GMT -9.387724 114.911453 14,500 274 283 -448
2019-08-08 09:24:41 GMT -9.388888 114.926987 14,575 275 290 -576
2019-08-08 09:24:30 GMT -9.390005 114.941757 14,725 275 294 -1664
2019-08-08 09:24:20 GMT -9.391068 114.956329 15,050 275 293 -1792
2019-08-08 09:24:08 GMT -9.392147 114.971924 15,350 274 292 -1728
2019-08-08 09:23:58 GMT -9.393082 114.985840 15,625 274 291 -1600
2019-08-08 09:23:47 GMT -9.394148 115.001381 15,900 274 291 -1536
2019-08-08 09:23:36 GMT -9.395142 115.015778 16,150 275 292 -1344
2019-08-08 09:23:25 GMT -9.396194 115.030579 16,375 275 294 -1152
2019-08-08 09:23:14 GMT -9.397293 115.046036 16,550 275 297 -1088
2019-08-08 09:23:03 GMT -9.398300 115.060562 16,775 274 301 -1216
2019-08-08 09:22:53 GMT -9.399362 115.076149 16,925 274 307 -704
2019-08-08 09:22:42 GMT -9.400433 115.091782 17,025 274 314 -640
2019-08-08 09:22:31 GMT -9.401504 115.107788 17,150 274 322 -576
2019-08-08 09:22:20 GMT -9.402603 115.124519 17,225 274 330 -448
2019-08-08 09:22:09 GMT -9.403645 115.141121 17,325 274 339 -448
2019-08-08 09:21:58 GMT -9.404800 115.158783 17,400 274 349 -448
2019-08-08 09:21:47 GMT -9.406128 115.177963 17,500 274 359 -512
2019-08-08 09:21:37 GMT -9.407323 115.195343 17,575 275 370 -448
2019-08-08 09:21:26 GMT -9.408673 115.214241 17,650 275 383 -384
2019-08-08 09:21:15 GMT -9.410209 115.234505 17,725 275 394 -1024
2019-08-08 09:21:04 GMT -9.411804 115.254173 18,000 275 400 -2176
2019-08-08 09:20:53 GMT -9.413421 115.274757 18,400 275 403 -2752
2019-08-08 09:20:42 GMT -9.415009 115.294716 18,900 275 403 -2944
2019-08-08 09:20:32 GMT -9.416519 115.315063 19,350 275 403 -3136
2019-08-08 09:20:21 GMT -9.417937 115.335701 19,875 274 401 -2368
2019-08-08 09:20:10 GMT -9.419287 115.356064 20,250 275 405 -1984
2019-08-08 09:19:59 GMT -9.420776 115.376976 20,525 275 412 -1024
2019-08-08 09:19:43 GMT -9.422964 115.407539 21,075 275 415 -3392
2019-08-08 09:19:32 GMT -9.424438 115.428787 21,625 275 413 -2560
2019-08-08 09:19:21 GMT -9.425995 115.450386 22,025 275 415 -2240
2019-08-08 09:19:10 GMT -9.427643 115.472130 22,425 275 417 -2368
2019-08-08 09:18:59 GMT -9.429062 115.492378 22,825 274 417 -2560
2019-08-08 09:18:53 GMT -9.429901 115.505234 23,075 274 417 -2880
2019-08-08 09:18:47 GMT -9.430573 115.516541 23,350 274 416 -3264
2019-08-08 09:18:37 GMT -9.431716 115.536301 23,950 274 410 -4288
2019-08-08 09:18:26 GMT -9.432973 115.556000 24,600 274 402 -3200
2019-08-08 09:18:15 GMT -9.434277 115.576317 24,925 274 406 -320
2019-08-08 09:18:10 GMT -9.434921 115.586647 24,950 274 413 0
2019-08-08 09:18:05 GMT -9.435627 115.597099 24,950 274 417 -64
2019-08-08 09:17:57 GMT -9.436651 115.612869 25,000 274 427 -1152
2019-08-08 09:17:54 GMT -9.437027 115.618019 25,050 274 428 -1408
2019-08-08 09:17:48 GMT -9.437805 115.630081 25,200 274 431 -2176
2019-08-08 09:17:43 GMT -9.438513 115.640144 25,375 274 432 -2304
2019-08-08 09:17:37 GMT -9.439224 115.651077 25,550 274 433 -2240
2019-08-08 09:17:32 GMT -9.439957 115.661598 25,750 274 435 -2240
2019-08-08 09:17:27 GMT -9.440701 115.672585 25,925 274 436 -2304
2019-08-08 09:17:21 GMT -9.441513 115.684402 26,125 275 438 -2304
2019-08-08 09:17:16 GMT -9.442284 115.695457 26,325 275 439 -2368
2019-08-08 09:17:10 GMT -9.443069 115.706520 26,525 275 440 -2368
2019-08-08 09:17:05 GMT -9.443820 115.716820 26,725 275 441 -2368
2019-08-08 09:17:00 GMT -9.444658 115.728371 26,925 275 442 -2304
2019-08-08 09:16:54 GMT -9.445403 115.739075 27,100 275 443 -2304
2019-08-08 09:16:49 GMT -9.446274 115.751114 27,325 275 445 -2240
2019-08-08 09:16:44 GMT -9.447032 115.761475 27,500 275 446 -2240
2019-08-08 09:16:38 GMT -9.447922 115.773552 27,700 275 448 -2176
2019-08-08 09:16:33 GMT -9.448700 115.784447 27,875 275 449 -2176
2019-08-08 09:16:27 GMT -9.449524 115.796181 28,050 275 451 -2304
2019-08-08 09:16:22 GMT -9.450394 115.807953 28,250 275 451 -2176
2019-08-08 09:16:16 GMT -9.451222 115.819336 28,425 275 452 -1664
2019-08-08 09:16:11 GMT -9.452042 115.830765 28,550 275 453 -1088
2019-08-08 09:16:05 GMT -9.452851 115.842163 28,650 275 453 -1024
2019-08-08 09:16:00 GMT -9.453644 115.853577 28,750 275 453 -1088
2019-08-08 09:15:55 GMT -9.454468 115.864563 28,825 275 453 -1088
2019-08-08 09:15:49 GMT -9.455272 115.875977 28,925 275 453 -1088
2019-08-08 09:15:44 GMT -9.456024 115.887421 29,000 274 454 -1088
2019-08-08 09:15:39 GMT -9.456808 115.898849 29,100 274 454 -1024
2019-08-08 09:15:33 GMT -9.457672 115.911163 29,200 274 455 -1024
2019-08-08 09:15:28 GMT -9.458344 115.920914 29,275 274 456 -1024
2019-08-08 09:15:22 GMT -9.459182 115.933701 29,350 274 456 -1024
2019-08-08 09:15:17 GMT -9.459927 115.944778 29,450 274 457 -1024
2019-08-08 09:15:11 GMT -9.460739 115.957153 29,550 274 458 -1024
2019-08-08 09:15:06 GMT -9.461426 115.967400 29,625 274 458 -1088
2019-08-08 09:15:00 GMT -9.462348 115.980675 29,725 274 458 -1088
2019-08-08 09:14:56 GMT -9.462936 115.989647 29,800 274 459 -1088
2019-08-08 09:14:50 GMT -9.463852 116.003380 29,900 274 459 -1088
2019-08-08 09:14:45 GMT -9.464539 116.013626 30,000 274 459 -1088
2019-08-08 09:14:38 GMT -9.465513 116.027794 30,100 274 460 -1152
2019-08-08 09:14:34 GMT -9.466141 116.036804 30,175 274 460 -1152
2019-08-08 09:14:28 GMT -9.467003 116.050102 30,300 274 460 -1088
2019-08-08 09:14:23 GMT -9.467697 116.059990 30,375 274 461 -1088
2019-08-08 09:14:16 GMT -9.468632 116.074203 30,500 274 461 -1088
2019-08-08 09:14:13 GMT -9.469237 116.082825 30,550 274 462 -1088
2019-08-08 09:14:06 GMT -9.470215 116.097046 30,675 274 463 -1088
2019-08-08 09:14:01 GMT -9.470913 116.107018 30,750 275 463 -1088
2019-08-08 09:13:55 GMT -9.471891 116.120850 30,850 275 464 -1024
2019-08-08 09:13:51 GMT -9.472496 116.129517 30,925 275 464 -1024
2019-08-08 09:13:44 GMT -9.473520 116.144241 31,025 275 464 -1024
2019-08-08 09:13:40 GMT -9.474106 116.152489 31,100 274 464 -1024
2019-08-08 09:13:33 GMT -9.475196 116.168533 31,200 274 464 -1024
2019-08-08 09:13:30 GMT -9.475708 116.175858 31,275 274 464 -1024
2019-08-08 09:13:22 GMT -9.476872 116.192734 31,375 274 464 -1024
2019-08-08 09:13:18 GMT -9.477356 116.200111 31,450 274 464 -960
2019-08-08 09:13:11 GMT -9.478361 116.215225 31,550 274 463 -1024
2019-08-08 09:13:08 GMT -9.478874 116.223038 31,600 274 463 -960
2019-08-08 09:13:00 GMT -9.479991 116.239426 31,725 274 463 -1024
2019-08-08 09:12:57 GMT -9.480503 116.246338 31,775 274 463 -1024
2019-08-08 09:12:49 GMT -9.481613 116.263191 31,900 274 462 -1024
2019-08-08 09:12:46 GMT -9.481993 116.268784 31,950 274 462 -1024
2019-08-08 09:12:39 GMT -9.483170 116.285583 32,075 274 461 -1024
2019-08-08 09:12:35 GMT -9.483627 116.292473 32,125 274 461 -1024
2019-08-08 09:12:28 GMT -9.484726 116.308807 32,250 274 461 -1024
2019-08-08 09:12:25 GMT -9.485158 116.315285 32,300 274 461 -1024
2019-08-08 09:12:17 GMT -9.486322 116.332474 32,425 274 460 -1024
2019-08-08 09:12:14 GMT -9.486741 116.338493 32,475 274 460 -1024
2019-08-08 09:12:06 GMT -9.487951 116.356529 32,600 274 460 -1024
2019-08-08 09:12:03 GMT -9.488277 116.361694 32,650 274 460 -1024
2019-08-08 09:11:53 GMT -9.489767 116.383995 32,825 274 460 -1024
2019-08-08 09:11:45 GMT -9.490977 116.402039 32,950 274 460 -1024
2019-08-08 09:11:42 GMT -9.491318 116.407639 33,000 274 460 -1024
2019-08-08 09:11:34 GMT -9.492508 116.425705 33,125 274 460 -1024
2019-08-08 09:11:31 GMT -9.492874 116.430824 33,175 274 460 -960
2019-08-08 09:11:21 GMT -9.494375 116.453613 33,325 274 461 -1024
2019-08-08 09:11:10 GMT -9.495895 116.476402 33,500 274 460 -1024
2019-08-08 09:11:01 GMT -9.497131 116.495300 33,650 274 459 -1024
2019-08-08 09:10:58 GMT -9.497543 116.501305 33,700 274 460 -960
2019-08-08 09:10:50 GMT -9.498642 116.518532 33,825 274 459 -1024
2019-08-08 09:10:39 GMT -9.500241 116.542114 34,000 274 460 -1024
2019-08-08 09:10:28 GMT -9.501777 116.565323 34,175 274 460 -960
2019-08-08 09:10:18 GMT -9.503313 116.588478 34,350 274 459 -1088
2019-08-08 09:10:07 GMT -9.504896 116.611588 34,525 274 459 -1024
2019-08-08 09:09:56 GMT -9.506516 116.635139 34,700 274 458 -1152
2019-08-08 09:09:45 GMT -9.508072 116.658234 34,900 274 459 -1152
2019-08-08 09:09:34 GMT -9.509628 116.681366 35,075 274 460 -1152
2019-08-08 09:09:24 GMT -9.511185 116.704597 35,275 274 463 -1152
2019-08-08 09:09:13 GMT -9.512764 116.728409 35,475 274 466 -1152
2019-08-08 09:09:02 GMT -9.514346 116.751991 35,650 274 471 -1216
2019-08-08 09:08:51 GMT -9.515836 116.774910 35,875 274 475 -1024
2019-08-08 09:08:40 GMT -9.517456 116.799377 36,000 274 478 -64
2019-08-08 09:08:30 GMT -9.519012 116.823494 36,000 274 478 0
2019-08-08 09:08:19 GMT -9.520615 116.847610 36,000 274 479 0
2019-08-08 09:08:08 GMT -9.522171 116.871719 36,000 274 479 64
2019-08-08 09:07:57 GMT -9.523819 116.896767 36,000 274 479 64
2019-08-08 09:07:35 GMT -9.526978 116.944992 36,000 274 479 0
2019-08-08 09:07:24 GMT -9.528580 116.969154 36,000 274 479 0
2019-08-08 09:07:00 GMT -9.532176 117.024193 36,000 274 479 64
2019-08-08 09:06:52 GMT -9.533386 117.042046 36,000 274 479 0
2019-08-08 09:06:41 GMT -9.534943 117.065750 36,000 274 479 64
2019-08-08 09:05:54 GMT -9.541763 117.170448 36,000 274 480 0
2019-08-08 09:05:46 GMT -9.542929 117.188797 36,000 274 480 0
2019-08-08 09:05:35 GMT -9.544512 117.212990 36,000 274 480 0
2019-08-08 09:05:24 GMT -9.546112 117.237617 36,000 274 480 0
2019-08-08 09:05:13 GMT -9.547817 117.264038 36,000 274 480 0
2019-08-08 09:05:02 GMT -9.549454 117.288643 36,000 274 480 64
2019-08-08 09:04:52 GMT -9.550827 117.310150 36,000 274 480 0
2019-08-08 09:04:41 GMT -9.552426 117.334785 36,000 274 480 0
2019-08-08 09:04:30 GMT -9.554009 117.359886 36,000 274 480 64
2019-08-08 09:04:01 GMT -9.558243 117.424805 36,000 274 479 0
2019-08-08 09:03:42 GMT -9.560899 117.467384 36,000 274 480 0
2019-08-08 09:03:35 GMT -9.561923 117.482628 36,000 274 480 64
2019-08-08 09:03:07 GMT -9.565842 117.544029 36,000 274 480 64
2019-08-08 09:02:54 GMT -9.567719 117.573586 36,000 274 479 0
2019-08-08 09:02:46 GMT -9.568906 117.592827 36,000 274 479 0
2019-08-08 09:02:35 GMT -9.570328 117.616600 36,000 274 479 0
2019-08-08 09:02:24 GMT -9.571885 117.641273 36,000 274 480 0
2019-08-08 09:02:13 GMT -9.573514 117.666321 36,000 274 480 0
2019-08-08 09:01:47 GMT -9.577099 117.723671 36,000 274 480 0
2019-08-08 09:01:35 GMT -9.578979 117.751884 36,000 274 479 0
2019-08-08 09:01:29 GMT -9.579845 117.764870 36,000 274 479 0
2019-08-08 09:00:56 GMT -9.584547 117.837601 36,000 274 476 0
2019-08-08 09:00:46 GMT -9.585944 117.860710 36,000 274 475 0
2019-08-08 09:00:35 GMT -9.587448 117.885162 36,000 274 475 0
2019-08-08 09:00:24 GMT -9.588959 117.909134 36,000 274 476 0
2019-08-08 09:00:13 GMT -9.590561 117.934044 36,000 274 475 0
2019-08-08 09:00:02 GMT -9.592042 117.957603 36,000 274 475 0
2019-08-08 08:59:51 GMT -9.593628 117.982925 36,000 274 475 0
2019-08-08 08:59:41 GMT -9.595047 118.006058 36,000 274 475 0
2019-08-08 08:59:30 GMT -9.596558 118.030479 36,000 274 475 0
2019-08-08 08:57:49 GMT -9.610570 118.256081 36,000 274 478 0
2019-08-08 08:57:41 GMT -9.611618 118.272614 36,000 274 478 0
2019-08-08 08:57:30 GMT -9.613083 118.296776 36,000 274 479 0
2019-08-08 08:57:18 GMT -9.614806 118.324127 36,000 274 479 0
2019-08-08 08:57:09 GMT -9.616110 118.345627 36,000 274 480 0
2019-08-08 08:56:57 GMT -9.617615 118.370331 36,000 274 480 0
2019-08-08 08:56:47 GMT -9.619125 118.394585 36,000 274 481 0
2019-08-08 08:56:35 GMT -9.620765 118.421158 36,000 274 481 0

Making use of Plane Finder data

You are free to use the raw flight data, aircraft information and images provided in this report for your own purposes provided the data is correctly attributed to Plane Finder. We ask that you please credit Plane Finder and link to planefinder.net in close proximity to the content.

Optionally one of the following logos (no smaller then 150x24px) can be used and must link to planefinder.net

Embedding the Plane Finder map

You are welcome to embed the Plane Finder playback map on your website to offer visitors a more interactive experience. We suggest using the following HTML code:

<iframe src="//planefinder.net/data/report/JT925-PK-LGO-7700-squawk-2019-08-08/map" width="800" height="600" seamless="seamless"></iframe>

Where our data comes from

Plane Finder has a global network of data feeds and antenna radars that receive data broadcast directly from aircraft. The primary technologies used are ADS-B and MLAT. We also show feeds from the FAA and a FLARM glider feed.

Click here to find out more about the Plane Finder network.

How we collect our data